Hlavní strana
METAR-TAF:

METAR-TAF

Letiště :

Tuzla, Bosna a Hercegovina

zeměpisná šířka: 44-33N, zeměpisná délka: 018-42E, výška: 306 m

Aktuální stav počasí

Zpráva byla vytvořena před 2 hodinami a 29 minutami, v 22:00 UTC
vítr z různých směrů 2 kt
Teplota 7°C
Vlhkost vzduchu 87%
Tlak 1027 hPa
Viditelnost 10 km a více
Žádná oblačnost pod 1500 m, nevyskytují se cumulonimby.

METAR: LQTZ 192200Z VRB02KT CAVOK 07/05 Q1027

Čas: 02:29 (00:29 UTC)

Předpověď počasí

Zpráva byla vytvořena před 7 hodinami a 29 minutami, v 17:00 UTC
Předpověď platná od 19 v 18 UTC do 20 v 18 UTC
Severoseverozápadní vítr 5 kt
Viditelnost 10 km a více
Žádná oblačnost pod 1500 m, nevyskytují se cumulonimby.
Pravděpodobnost 30% :
Dočasný
od 20 v 03 UTC do 20 v 07 UTC
Viditelnost: 3000 m
kouřmo
Dočasný
od 20 v 12 UTC do 20 v 17 UTC
Severoseverovýchodní vítr 10 kt

TAF: LQTZ 191700Z 1918/2018 33005KT CAVOK TX20/2013Z TN03/2004Z PROB30 TEMPO 2003/2007 3000 BR TEMPO 2012/2017 03010KT

Stav a předpovědi počasí z více než 4 000 letišť (zprávy METAR a TAF).

Červené a žluté tečky na mapě představují dostupné meteorologické stanice.

Když kurzor umístíte na tečku, zobrazí se název stanice.

Pak kliknutím zobrazíte stav a předpověď počasí.

Chcete-li změnit mapu, kliknutím na zelené tlačítko se znaménkem +mapu přiblížíte, kliknutím na zelené tlačítko se znaménkem – mapu oddálíte a kliknutím na zelené šipky přejdete na sousední mapy.


METAR-TAF: